Ruby, VA

4:04 PM EST on February 25, 2017 (GMT -0500)
Windsor Forest | | Change Station

Elev 308 ft 38.49 °N, 77.52 °W | Updated 15 seconds ago

Overcast
Overcast
62.2 °F
Feels Like 62.2 °F
N
0.0
Wind Variable Wind from NW
Gusts 0.0 mph

Today
High -- | Low -- °F
--% Chance of Precip.
Yesterday
High -- | Low -- °F
Precip. -- in
Pressure 29.54 in
Visibility 10.0 miles
Clouds Overcast 5000 ft
Dew Point 43 °F
Humidity 50%
Rainfall 0.56 in
Snow Depth Not available.
6:47 AM 5:59 PM
Waning Crescent, 1% visible
METAR KRMN 252035Z AUTO 28010G15KT 10SM OVC050 17/14 A2954 RMK AO2 LTG DSNT NE THRU S T01690142
Pressure 29.54 in
Visibility 10.0 miles
Clouds Overcast 5000 ft
Dew Point 43 °F
Humidity 50%
Rainfall 0.56 in
Snow Depth Not available.
6:47 AM 5:59 PM
Waning Crescent, 1% visible
METAR KRMN 252035Z AUTO 28010G15KT 10SM OVC050 17/14 A2954 RMK AO2 LTG DSNT NE THRU S T01690142

Get Your Daily Forecast Email!

Thanks for signing up!

Be on the lookout for a verification email in your inbox.

You'll start receiving the daily forecast at 8 AM.

×

10-Day Weather Forecast

Almanac

Astronomy

Feb. 25, 2017 Rise Set
Actual Time
Civil Twilight
Nautical Twilight
Astronomical Twilight
Moon
Length of Visible Light
Length of Day
Tomorrow will be .
, % of the Moon is Illuminated

Today's Extremes

State Highs State Lows

Community

WunderPhotos

Upload Photos

1,962,540 photos uploaded!

WunderBlog® & News

Nearby

Air Quality

  Air Quality AQ Index Pollutant
Not available.

Snow Depth

Station Depth Elevation

Earthquake Activity

City Distance Mag. Time & Date
Minimum magnitude displayed is 2.5.

Coastal Water Temperatures

Place Temperature

Stations

Nearby Weather Stations

Station Location Temp. Windchill Dew Point Humidity Wind Precip. Elev Updated Type
                   

Watches & Warnings

There are currently no watches in effect.